createdAt,value
2017-11-13T00:00:43.466Z,99.99
2017-11-13T00:01:43.460Z,99.99
2017-11-13T00:02:43.122Z,99.99
2017-11-13T00:03:43.111Z,99.99
2017-11-13T00:04:43.428Z,99.99
2017-11-13T00:05:43.092Z,99.99
2017-11-13T00:06:43.413Z,99.99
2017-11-13T00:07:43.398Z,99.99
2017-11-13T00:08:43.390Z,99.99
2017-11-13T00:09:43.478Z,99.99
2017-11-13T00:10:43.370Z,99.99
2017-11-13T00:11:43.358Z,99.99
2017-11-13T00:12:43.350Z,99.99
2017-11-13T00:13:43.341Z,99.99
2017-11-13T00:14:43.006Z,99.99
2017-11-13T00:15:43.101Z,99.99
2017-11-13T00:16:43.416Z,99.99
2017-11-13T00:17:43.301Z,99.99
2017-11-13T00:18:43.292Z,99.99
2017-11-13T00:19:43.282Z,99.99
2017-11-13T00:20:42.947Z,99.99
2017-11-13T00:21:43.261Z,99.99
2017-11-13T00:22:43.250Z,99.99
2017-11-13T00:23:43.247Z,99.99
2017-11-13T00:24:42.908Z,99.99
2017-11-13T00:25:43.227Z,99.99
2017-11-13T00:26:42.988Z,99.99
2017-11-13T00:27:43.205Z,99.99
2017-11-13T00:28:42.877Z,99.99
2017-11-13T00:29:43.187Z,99.99
2017-11-13T00:30:43.177Z,99.99
2017-11-13T00:31:42.839Z,99.99
2017-11-13T00:32:42.832Z,99.99
2017-11-13T00:33:43.151Z,99.99
2017-11-13T00:34:43.239Z,99.99
2017-11-13T00:35:43.127Z,99.99
2017-11-13T00:36:43.117Z,99.99
2017-11-13T00:37:43.112Z,99.99
2017-11-13T00:38:43.100Z,99.99
2017-11-13T00:39:43.194Z,99.99
2017-11-13T00:40:43.086Z,99.99
2017-11-13T00:41:42.750Z,99.99
2017-11-13T00:42:43.060Z,99.99
2017-11-13T00:43:42.727Z,99.99
2017-11-13T00:44:43.046Z,99.99
2017-11-13T00:45:43.034Z,99.99
2017-11-13T00:46:43.022Z,99.99
2017-11-13T00:47:43.014Z,99.99
2017-11-13T00:48:42.680Z,99.99
2017-11-13T00:49:43.093Z,99.99
2017-11-13T00:50:42.985Z,99.99
2017-11-13T00:51:42.980Z,99.99
2017-11-13T00:52:42.963Z,99.99
2017-11-13T00:53:42.956Z,99.99
2017-11-13T00:54:42.944Z,99.99
2017-11-13T00:55:42.935Z,99.99
2017-11-13T00:56:42.700Z,99.99
2017-11-13T00:57:42.916Z,99.99
2017-11-13T00:58:42.585Z,99.99
2017-11-13T00:59:42.899Z,99.99
2017-11-13T01:00:42.892Z,99.99
2017-11-13T01:01:42.550Z,99.99
2017-11-13T01:02:42.868Z,99.99
2017-11-13T01:03:42.871Z,99.99
2017-11-13T01:04:42.851Z,99.99
2017-11-13T01:05:42.840Z,99.99
2017-11-13T01:06:42.832Z,99.99
2017-11-13T01:07:42.496Z,99.99
2017-11-13T01:08:42.809Z,99.99
2017-11-13T01:09:42.806Z,99.99
2017-11-13T01:10:42.792Z,99.99
2017-11-13T01:11:42.789Z,99.99
2017-11-13T01:12:42.772Z,99.99
2017-11-13T01:13:42.770Z,99.99
2017-11-13T01:14:42.757Z,99.99
2017-11-13T01:15:42.745Z,99.99
2017-11-13T01:16:42.733Z,99.99
2017-11-13T01:17:42.400Z,99.99
2017-11-13T01:18:42.715Z,99.99
2017-11-13T01:19:42.708Z,99.99
2017-11-13T01:20:42.695Z,99.99
2017-11-13T01:21:42.359Z,99.99
2017-11-13T01:22:42.783Z,99.99
2017-11-13T01:23:42.667Z,99.99
2017-11-13T01:24:42.655Z,99.99
2017-11-13T01:25:42.321Z,99.99
2017-11-13T01:26:42.636Z,99.99
2017-11-13T01:27:42.627Z,99.99
2017-11-13T01:28:42.293Z,99.99
2017-11-13T01:29:42.611Z,99.99
2017-11-13T01:30:42.600Z,99.99
2017-11-13T01:31:42.587Z,99.99
2017-11-13T01:32:42.580Z,99.99
2017-11-13T01:33:42.570Z,99.99
2017-11-13T01:34:42.568Z,99.99
2017-11-13T01:35:42.223Z,99.99
2017-11-13T01:36:42.542Z,99.99
2017-11-13T01:37:42.204Z,99.99
2017-11-13T01:38:42.519Z,99.99
2017-11-13T01:39:42.511Z,99.99
2017-11-13T01:40:42.499Z,99.99
2017-11-13T01:41:42.175Z,99.99
2017-11-13T01:42:42.484Z,99.99
2017-11-13T01:43:42.571Z,99.99
2017-11-13T01:44:42.463Z,99.99
2017-11-13T01:45:42.451Z,99.99
2017-11-13T01:46:42.441Z,99.99
2017-11-13T01:47:42.434Z,99.99
2017-11-13T01:48:42.437Z,99.99
2017-11-13T01:49:42.415Z,99.99
2017-11-13T01:50:42.506Z,99.99
2017-11-13T01:51:42.071Z,99.99
2017-11-13T01:52:42.392Z,99.99
2017-11-13T01:53:42.049Z,99.99
2017-11-13T01:54:42.366Z,99.99
2017-11-13T01:55:42.356Z,99.99
2017-11-13T01:56:42.346Z,99.99
2017-11-13T01:57:42.341Z,99.99
2017-11-13T01:58:42.329Z,99.99
2017-11-13T01:59:42.316Z,99.99
2017-11-13T02:00:42.307Z,99.99
2017-11-13T02:01:42.299Z,99.99
2017-11-13T02:02:42.291Z,99.99
2017-11-13T02:03:42.291Z,99.99
2017-11-13T02:04:42.277Z,99.99
2017-11-13T02:05:42.260Z,99.99
2017-11-13T02:06:41.933Z,99.99
2017-11-13T02:07:42.243Z,99.99
2017-11-13T02:08:42.230Z,99.99
2017-11-13T02:09:42.319Z,99.99
2017-11-13T02:10:41.884Z,99.99
2017-11-13T02:11:42.211Z,99.99
2017-11-13T02:12:41.874Z,99.99
2017-11-13T02:13:42.182Z,99.99
2017-11-13T02:14:42.177Z,99.99
2017-11-13T02:15:42.161Z,99.99
2017-11-13T02:16:42.153Z,99.99
2017-11-13T02:17:42.150Z,99.99
2017-11-13T02:18:42.142Z,99.99
2017-11-13T02:19:42.226Z,99.99
2017-11-13T02:20:42.119Z,99.99
2017-11-13T02:21:42.103Z,99.99
2017-11-13T02:22:42.095Z,99.99
2017-11-13T02:23:42.086Z,99.99
2017-11-13T02:24:41.750Z,99.99
2017-11-13T02:25:42.066Z,99.99
2017-11-13T02:26:41.830Z,99.99
2017-11-13T02:27:42.044Z,99.99
2017-11-13T02:28:42.036Z,99.99
2017-11-13T02:29:42.029Z,99.99
2017-11-13T02:30:42.019Z,99.99
2017-11-13T02:31:42.006Z,99.99
2017-11-13T02:32:42.001Z,99.99
2017-11-13T02:33:41.990Z,99.99
2017-11-13T02:34:41.977Z,99.99
2017-11-13T02:35:41.966Z,99.99
2017-11-13T02:36:41.955Z,99.99
2017-11-13T02:37:41.961Z,99.99
2017-11-13T02:38:42.058Z,99.99
2017-11-13T02:39:41.934Z,99.99
2017-11-13T02:40:41.918Z,99.99
2017-11-13T02:41:41.909Z,99.99
2017-11-13T02:42:41.902Z,99.99
2017-11-13T02:43:41.578Z,99.99
2017-11-13T02:44:41.884Z,99.99
2017-11-13T02:45:41.544Z,99.99
2017-11-13T02:46:41.858Z,99.99
2017-11-13T02:47:41.848Z,99.99
2017-11-13T02:48:41.513Z,99.99
2017-11-13T02:49:41.851Z,99.99
2017-11-13T02:50:41.825Z,99.99
2017-11-13T02:51:41.586Z,99.99
2017-11-13T02:52:41.920Z,99.99
2017-11-13T02:53:41.802Z,99.99
2017-11-13T02:54:41.454Z,99.99
2017-11-13T02:55:41.771Z,99.99
2017-11-13T02:56:41.769Z,99.99
2017-11-13T02:57:41.523Z,99.99
2017-11-13T02:58:41.782Z,99.99
2017-11-13T02:59:41.831Z,99.99
2017-11-13T03:00:41.724Z,99.99
2017-11-13T03:01:41.721Z,99.99
2017-11-13T03:02:41.709Z,99.99
2017-11-13T03:03:41.690Z,99.99
2017-11-13T03:04:41.784Z,99.99
2017-11-13T03:05:41.676Z,99.99
2017-11-13T03:06:41.760Z,99.99
2017-11-13T03:07:41.652Z,99.99
2017-11-13T03:08:41.644Z,99.99
2017-11-13T03:09:41.638Z,99.99
2017-11-13T03:10:41.623Z,99.99
2017-11-13T03:11:41.614Z,99.99
2017-11-13T03:12:41.604Z,99.99
2017-11-13T03:13:41.592Z,99.99
2017-11-13T03:14:41.583Z,99.99
2017-11-13T03:15:41.577Z,99.99
2017-11-13T03:16:41.567Z,99.99
2017-11-13T03:17:41.552Z,99.99
2017-11-13T03:18:41.544Z,99.99
2017-11-13T03:19:41.537Z,99.99
2017-11-13T03:20:41.528Z,99.99
2017-11-13T03:21:41.513Z,99.99
2017-11-13T03:22:41.185Z,99.99
2017-11-13T03:23:41.491Z,99.99
2017-11-13T03:24:41.519Z,99.99
2017-11-13T03:25:41.478Z,99.99
2017-11-13T03:26:41.463Z,99.99
2017-11-13T03:27:41.455Z,99.99
2017-11-13T03:28:41.446Z,99.99
2017-11-13T03:29:41.134Z,99.99
2017-11-13T03:30:41.448Z,99.99
2017-11-13T03:31:41.434Z,99.99
2017-11-13T03:32:41.079Z,99.99
2017-11-13T03:33:41.404Z,99.99
2017-11-13T03:34:41.383Z,99.99
2017-11-13T03:35:41.380Z,99.99
2017-11-13T03:36:41.373Z,99.99
2017-11-13T03:37:41.363Z,99.99
2017-11-13T03:38:41.344Z,99.99
2017-11-13T03:39:41.337Z,99.99
2017-11-13T03:40:41.427Z,99.99
2017-11-13T03:41:41.314Z,99.99
2017-11-13T03:42:41.313Z,99.99
2017-11-13T03:43:41.296Z,99.99
2017-11-13T03:44:40.962Z,99.99
2017-11-13T03:45:41.285Z,99.99
2017-11-13T03:46:41.271Z,99.99
2017-11-13T03:47:41.260Z,99.99
2017-11-13T03:48:41.244Z,99.99
2017-11-13T03:49:41.238Z,99.99
2017-11-13T03:50:41.231Z,99.99
2017-11-13T03:51:41.214Z,99.99
2017-11-13T03:52:41.206Z,99.99
2017-11-13T03:53:41.201Z,99.99
2017-11-13T03:54:41.286Z,99.99
2017-11-13T03:55:41.180Z,99.99
2017-11-13T03:56:41.172Z,99.99
2017-11-13T03:57:41.158Z,99.99
2017-11-13T03:58:41.149Z,99.99
2017-11-13T03:59:40.811Z,99.99
2017-11-13T04:00:41.134Z,99.99
2017-11-13T04:01:41.119Z,99.99
2017-11-13T04:02:41.108Z,99.99
2017-11-13T04:03:41.096Z,99.99
2017-11-13T04:04:41.089Z,99.99
2017-11-13T04:05:41.080Z,99.99
2017-11-13T04:06:41.166Z,99.99
2017-11-13T04:07:41.056Z,99.99
2017-11-13T04:08:40.719Z,99.99
2017-11-13T04:09:40.712Z,99.99
2017-11-13T04:10:41.029Z,99.99
2017-11-13T04:11:40.692Z,99.99
2017-11-13T04:12:41.010Z,99.99
2017-11-13T04:13:40.996Z,99.99
2017-11-13T04:14:40.667Z,99.99
2017-11-13T04:15:40.991Z,99.99
2017-11-13T04:16:40.969Z,99.99
2017-11-13T04:17:40.961Z,99.99
2017-11-13T04:18:40.622Z,99.99
2017-11-13T04:19:41.036Z,99.99
2017-11-13T04:20:40.930Z,99.99
2017-11-13T04:21:40.591Z,99.99
2017-11-13T04:22:40.907Z,99.99
2017-11-13T04:23:41.001Z,99.99
2017-11-13T04:24:40.886Z,99.99
2017-11-13T04:25:40.877Z,99.99
2017-11-13T04:26:40.871Z,99.99
2017-11-13T04:27:40.866Z,99.99
2017-11-13T04:28:40.850Z,99.99
2017-11-13T04:29:40.840Z,99.99
2017-11-13T04:30:40.502Z,99.99
2017-11-13T04:31:40.818Z,99.99
2017-11-13T04:32:40.483Z,99.99
2017-11-13T04:33:40.472Z,99.99
2017-11-13T04:34:40.462Z,99.99
2017-11-13T04:35:40.454Z,99.99
2017-11-13T04:36:40.769Z,99.99
2017-11-13T04:37:40.762Z,99.99
2017-11-13T04:38:40.422Z,99.99
2017-11-13T04:39:40.417Z,99.99
2017-11-13T04:40:40.729Z,99.99
2017-11-13T04:41:40.716Z,99.99
2017-11-13T04:42:40.708Z,99.99
2017-11-13T04:43:40.700Z,99.99
2017-11-13T04:44:40.368Z,99.99
2017-11-13T04:45:40.809Z,99.99
2017-11-13T04:46:40.668Z,99.99
2017-11-13T04:47:40.659Z,99.99
2017-11-13T04:48:40.753Z,99.99
2017-11-13T04:49:40.314Z,99.99
2017-11-13T04:50:40.630Z,99.99
2017-11-13T04:51:40.621Z,99.99
2017-11-13T04:52:40.384Z,99.99
2017-11-13T04:53:40.598Z,99.99
2017-11-13T04:54:40.587Z,99.99
2017-11-13T04:55:40.581Z,99.99
2017-11-13T04:56:40.245Z,99.99
2017-11-13T04:57:40.561Z,99.99
2017-11-13T04:58:40.572Z,99.99
2017-11-13T04:59:40.546Z,99.99
2017-11-13T05:00:40.532Z,99.99
2017-11-13T05:01:40.534Z,99.99
2017-11-13T05:02:40.513Z,99.99
2017-11-13T05:03:40.503Z,99.99
2017-11-13T05:04:40.491Z,99.99
2017-11-13T05:05:40.156Z,99.99
2017-11-13T05:06:40.476Z,99.99
2017-11-13T05:07:40.463Z,99.99
2017-11-13T05:08:40.126Z,99.99
2017-11-13T05:09:40.119Z,99.99
2017-11-13T05:10:40.429Z,99.99
2017-11-13T05:11:40.093Z,99.99
2017-11-13T05:12:40.513Z,99.99
2017-11-13T05:13:40.402Z,99.99
2017-11-13T05:14:40.066Z,99.99
2017-11-13T05:15:40.384Z,99.99
2017-11-13T05:16:40.372Z,99.99
2017-11-13T05:17:40.363Z,99.99
2017-11-13T05:18:40.550Z,99.99
2017-11-13T05:19:40.018Z,99.99
2017-11-13T05:20:40.335Z,99.99
2017-11-13T05:21:40.323Z,99.99
2017-11-13T05:22:40.416Z,99.99
2017-11-13T05:23:40.305Z,99.99
2017-11-13T05:24:40.295Z,99.99
2017-11-13T05:25:40.286Z,99.99
2017-11-13T05:26:40.283Z,99.99
2017-11-13T05:27:40.367Z,99.99
2017-11-13T05:28:39.927Z,99.99
2017-11-13T05:29:40.245Z,99.99
2017-11-13T05:30:40.237Z,99.99
2017-11-13T05:31:40.230Z,99.99
2017-11-13T05:32:40.316Z,99.99
2017-11-13T05:33:40.210Z,99.99
2017-11-13T05:34:40.194Z,99.99
2017-11-13T05:35:40.197Z,99.99
2017-11-13T05:36:40.176Z,99.99
2017-11-13T05:37:39.838Z,99.99
2017-11-13T05:38:40.155Z,99.99
2017-11-13T05:39:40.145Z,99.99
2017-11-13T05:40:40.139Z,99.99
2017-11-13T05:41:40.239Z,99.99
2017-11-13T05:42:40.118Z,99.99
2017-11-13T05:43:40.103Z,99.99
2017-11-13T05:44:39.766Z,99.99
2017-11-13T05:45:40.086Z,99.99
2017-11-13T05:46:40.084Z,99.99
2017-11-13T05:47:40.061Z,99.99
2017-11-13T05:48:39.728Z,99.99
2017-11-13T05:49:40.151Z,99.99
2017-11-13T05:50:40.038Z,99.99
2017-11-13T05:51:40.025Z,99.99
2017-11-13T05:52:40.022Z,99.99
2017-11-13T05:53:39.687Z,99.99
2017-11-13T05:54:39.994Z,99.99
2017-11-13T05:55:40.081Z,99.99
2017-11-13T05:56:39.649Z,99.99
2017-11-13T05:57:39.965Z,99.99
2017-11-13T05:58:39.954Z,99.99
2017-11-13T05:59:39.716Z,99.99
2017-11-13T06:00:39.930Z,99.99
2017-11-13T06:01:39.921Z,99.99
2017-11-13T06:02:39.909Z,99.99
2017-11-13T06:03:39.899Z,99.99
2017-11-13T06:04:39.889Z,99.99
2017-11-13T06:05:39.880Z,99.99
2017-11-13T06:06:39.870Z,99.99
2017-11-13T06:07:39.534Z,99.99
2017-11-13T06:08:39.853Z,99.99
2017-11-13T06:09:39.839Z,99.99
2017-11-13T06:10:39.505Z,99.99
2017-11-13T06:11:39.923Z,99.99
2017-11-13T06:12:39.809Z,99.99
2017-11-13T06:13:39.805Z,99.99
2017-11-13T06:14:39.797Z,99.99
2017-11-13T06:15:39.786Z,99.99
2017-11-13T06:16:39.444Z,99.99
2017-11-13T06:17:39.435Z,99.99
2017-11-13T06:18:39.757Z,99.99
2017-11-13T06:19:39.842Z,99.99
2017-11-13T06:20:39.728Z,99.99
2017-11-13T06:21:39.724Z,99.99
2017-11-13T06:22:39.710Z,99.99
2017-11-13T06:23:39.718Z,99.99
2017-11-13T06:24:39.696Z,99.99
2017-11-13T06:25:39.678Z,99.99
2017-11-13T06:26:39.673Z,99.99
2017-11-13T06:27:39.333Z,99.99
2017-11-13T06:28:39.425Z,99.99
2017-11-13T06:29:39.639Z,99.99
2017-11-13T06:30:39.307Z,99.99
2017-11-13T06:31:39.293Z,99.99
2017-11-13T06:32:39.611Z,99.99
2017-11-13T06:33:39.601Z,99.99
2017-11-13T06:34:39.589Z,99.99
2017-11-13T06:35:39.582Z,99.99
2017-11-13T06:36:39.245Z,99.99
2017-11-13T06:37:39.233Z,99.99
2017-11-13T06:38:39.606Z,99.99
2017-11-13T06:39:39.214Z,99.99
2017-11-13T06:40:39.531Z,99.99
2017-11-13T06:41:39.195Z,99.99
2017-11-13T06:42:39.610Z,99.99
2017-11-13T06:43:39.174Z,99.99
2017-11-13T06:44:39.492Z,99.99
2017-11-13T06:45:39.485Z,99.99
2017-11-13T06:46:39.468Z,99.99
2017-11-13T06:47:39.559Z,99.99
2017-11-13T06:48:39.452Z,99.99
2017-11-13T06:49:39.443Z,99.99
2017-11-13T06:50:39.431Z,99.99
2017-11-13T06:51:39.094Z,99.99
2017-11-13T06:52:39.412Z,99.99
2017-11-13T06:53:39.398Z,99.99
2017-11-13T06:54:39.396Z,99.99
2017-11-13T06:55:39.381Z,99.99
2017-11-13T06:56:39.370Z,99.99
2017-11-13T06:57:39.360Z,99.99
2017-11-13T06:58:39.348Z,99.99
2017-11-13T06:59:39.023Z,99.99
2017-11-13T07:00:39.338Z,99.99
2017-11-13T07:01:39.092Z,99.99
2017-11-13T07:02:39.304Z,99.99
2017-11-13T07:03:39.290Z,99.99
2017-11-13T07:04:39.290Z,99.99
2017-11-13T07:05:39.278Z,99.99
2017-11-13T07:06:39.272Z,99.99
2017-11-13T07:07:39.256Z,99.99
2017-11-13T07:08:38.921Z,99.99
2017-11-13T07:09:38.910Z,99.99
2017-11-13T07:10:39.327Z,99.99
2017-11-13T07:11:38.891Z,99.99
2017-11-13T07:12:39.208Z,99.99
2017-11-13T07:13:39.204Z,99.99
2017-11-13T07:14:39.181Z,99.99
2017-11-13T07:15:39.275Z,99.99
2017-11-13T07:16:39.173Z,99.99
2017-11-13T07:17:39.253Z,99.99
2017-11-13T07:18:39.152Z,99.99
2017-11-13T07:19:39.137Z,99.99
2017-11-13T07:20:39.125Z,99.99
2017-11-13T07:21:39.119Z,99.99
2017-11-13T07:22:39.102Z,99.99
2017-11-13T07:23:39.099Z,99.99
2017-11-13T07:24:39.093Z,99.99
2017-11-13T07:25:39.075Z,99.99
2017-11-13T07:26:39.065Z,99.99
2017-11-13T07:27:39.056Z,99.99
2017-11-13T07:28:39.044Z,99.99
2017-11-13T07:29:39.137Z,99.99
2017-11-13T07:30:39.027Z,99.99
2017-11-13T07:31:39.017Z,99.99
2017-11-13T07:32:39.004Z,99.99
2017-11-13T07:33:38.995Z,99.99
2017-11-13T07:34:38.989Z,99.99
2017-11-13T07:35:38.981Z,99.99
2017-11-13T07:36:38.967Z,99.99
2017-11-13T07:37:38.955Z,99.99
2017-11-13T07:38:38.949Z,99.99
2017-11-13T07:39:38.608Z,99.99
2017-11-13T07:40:38.927Z,99.99
2017-11-13T07:41:38.916Z,99.99
2017-11-13T07:42:38.581Z,99.99
2017-11-13T07:43:38.575Z,99.99
2017-11-13T07:44:38.887Z,99.99
2017-11-13T07:45:38.882Z,99.99
2017-11-13T07:46:38.973Z,99.99
2017-11-13T07:47:38.855Z,99.99
2017-11-13T07:48:38.845Z,99.99
2017-11-13T07:49:38.836Z,99.99
2017-11-13T07:50:38.832Z,99.99
2017-11-13T07:51:38.927Z,99.99
2017-11-13T07:52:38.807Z,99.99
2017-11-13T07:53:38.793Z,99.99
2017-11-13T07:54:38.783Z,99.99
2017-11-13T07:55:38.776Z,99.99
2017-11-13T07:56:38.770Z,99.99
2017-11-13T07:57:38.777Z,99.99
2017-11-13T07:58:38.423Z,99.99
2017-11-13T07:59:38.737Z,99.99
2017-11-13T08:00:38.826Z,99.99
2017-11-13T08:01:38.392Z,99.99
2017-11-13T08:02:38.706Z,99.99
2017-11-13T08:03:38.701Z,99.99
2017-11-13T08:04:38.687Z,99.99
2017-11-13T08:05:38.676Z,99.99
2017-11-13T08:06:38.774Z,99.99
2017-11-13T08:07:38.657Z,99.99
2017-11-13T08:08:38.644Z,99.99
2017-11-13T08:09:38.636Z,99.99
2017-11-13T08:10:38.627Z,99.99
2017-11-13T08:11:38.737Z,99.99
2017-11-13T08:12:38.603Z,99.99
2017-11-13T08:13:38.271Z,99.99
2017-11-13T08:14:38.589Z,99.99
2017-11-13T08:15:38.573Z,99.99
2017-11-13T08:16:38.563Z,99.99
2017-11-13T08:17:38.238Z,99.99
2017-11-13T08:18:38.548Z,99.99
2017-11-13T08:19:38.533Z,99.99
2017-11-13T08:20:38.206Z,99.99
2017-11-13T08:21:38.515Z,99.99
2017-11-13T08:22:38.504Z,99.99
2017-11-13T08:23:38.172Z,99.99
2017-11-13T08:24:38.161Z,99.99
2017-11-13T08:25:38.152Z,99.99
2017-11-13T08:26:38.466Z,99.99
2017-11-13T08:27:38.456Z,99.99
2017-11-13T08:28:38.447Z,99.99
2017-11-13T08:29:38.439Z,99.99
2017-11-13T08:30:38.104Z,99.99
2017-11-13T08:31:38.417Z,99.99
2017-11-13T08:32:38.081Z,99.99
2017-11-13T08:33:38.396Z,99.99
2017-11-13T08:34:38.391Z,99.99
2017-11-13T08:35:38.381Z,99.99
2017-11-13T08:36:38.039Z,99.99
2017-11-13T08:37:38.454Z,99.99
2017-11-13T08:38:38.347Z,99.99
2017-11-13T08:39:38.018Z,99.99
2017-11-13T08:40:38.001Z,99.99
2017-11-13T08:41:38.313Z,99.99
2017-11-13T08:42:38.404Z,99.99
2017-11-13T08:43:38.296Z,99.99
2017-11-13T08:44:37.969Z,99.99
2017-11-13T08:45:38.275Z,99.99
2017-11-13T08:46:37.940Z,99.99
2017-11-13T08:47:38.354Z,99.99
2017-11-13T08:48:38.256Z,99.99
2017-11-13T08:49:38.335Z,99.99
2017-11-13T08:50:38.226Z,99.99
2017-11-13T08:51:37.891Z,99.99
2017-11-13T08:52:38.206Z,99.99
2017-11-13T08:53:37.869Z,99.99
2017-11-13T08:54:37.860Z,99.99
2017-11-13T08:55:38.172Z,99.99
2017-11-13T08:56:38.165Z,99.99
2017-11-13T08:57:38.171Z,99.99
2017-11-13T08:58:37.819Z,99.99
2017-11-13T08:59:37.811Z,99.99
2017-11-13T09:00:38.120Z,99.99
2017-11-13T09:01:38.123Z,99.99
2017-11-13T09:02:38.107Z,99.99
2017-11-13T09:03:38.092Z,99.99
2017-11-13T09:04:38.085Z,99.99
2017-11-13T09:05:38.082Z,99.99
2017-11-13T09:06:38.061Z,99.99
2017-11-13T09:07:37.729Z,99.99
2017-11-13T09:08:37.728Z,99.99
2017-11-13T09:09:38.034Z,99.99
2017-11-13T09:10:38.033Z,99.99
2017-11-13T09:11:37.690Z,99.99
2017-11-13T09:12:37.679Z,99.99
2017-11-13T09:13:37.674Z,99.99
2017-11-13T09:14:37.982Z,99.99
2017-11-13T09:15:37.975Z,99.99
2017-11-13T09:16:37.963Z,99.99
2017-11-13T09:17:37.952Z,99.99
2017-11-13T09:18:37.949Z,99.99
2017-11-13T09:19:37.934Z,99.99
2017-11-13T09:20:37.947Z,99.99
2017-11-13T09:21:37.958Z,99.99
2017-11-13T09:22:37.904Z,99.99
2017-11-13T09:23:37.894Z,99.99
2017-11-13T09:24:37.886Z,99.99
2017-11-13T09:25:37.885Z,99.99
2017-11-13T09:26:37.870Z,99.99
2017-11-13T09:27:37.855Z,99.99
2017-11-13T09:28:37.855Z,99.99
2017-11-13T09:29:37.835Z,99.99
2017-11-13T09:30:37.835Z,99.99
2017-11-13T09:31:37.847Z,99.99
2017-11-13T09:32:37.803Z,99.99
2017-11-13T09:33:37.800Z,99.99
2017-11-13T09:34:37.789Z,99.99
2017-11-13T09:35:37.774Z,99.99
2017-11-13T09:36:37.440Z,99.99
2017-11-13T09:37:37.438Z,99.99
2017-11-13T09:38:37.427Z,99.99
2017-11-13T09:39:37.734Z,99.99
2017-11-13T09:40:37.725Z,99.99
2017-11-13T09:41:37.392Z,99.99
2017-11-13T09:42:37.711Z,99.99
2017-11-13T09:43:37.699Z,99.99
2017-11-13T09:44:37.787Z,99.99
2017-11-13T09:45:37.677Z,99.99
2017-11-13T09:46:37.342Z,99.99
2017-11-13T09:47:37.666Z,99.99
2017-11-13T09:48:37.647Z,99.99
2017-11-13T09:49:37.636Z,99.99
2017-11-13T09:50:37.629Z,99.99
2017-11-13T09:51:37.743Z,99.99
2017-11-13T09:52:37.605Z,99.99
2017-11-13T09:53:37.597Z,99.99
2017-11-13T09:54:37.584Z,99.99
2017-11-13T09:55:37.584Z,99.99
2017-11-13T09:56:37.669Z,99.99
2017-11-13T09:57:37.657Z,99.99
2017-11-13T09:58:37.555Z,99.99
2017-11-13T09:59:37.538Z,99.99
2017-11-13T10:00:37.535Z,99.99
2017-11-13T10:01:37.532Z,99.99
2017-11-13T10:02:37.182Z,99.99
2017-11-13T10:03:37.501Z,99.99
2017-11-13T10:04:37.488Z,99.99
2017-11-13T10:05:37.476Z,99.99
2017-11-13T10:06:37.475Z,99.99
2017-11-13T10:07:37.462Z,99.99
2017-11-13T10:08:37.457Z,99.99
2017-11-13T10:09:37.447Z,99.99
2017-11-13T10:10:37.435Z,99.99
2017-11-13T10:11:37.418Z,99.99
2017-11-13T10:12:37.412Z,99.99
2017-11-13T10:13:37.395Z,99.99
2017-11-13T10:14:37.398Z,99.99
2017-11-13T10:15:37.378Z,99.99
2017-11-13T10:16:37.374Z,99.99
2017-11-13T10:17:37.458Z,99.99
2017-11-13T10:18:37.354Z,99.99
2017-11-13T10:19:37.352Z,99.99
2017-11-13T10:20:37.331Z,99.99
2017-11-13T10:21:36.994Z,99.99
2017-11-13T10:22:37.321Z,99.26
2017-11-13T10:23:37.325Z,99.54
2017-11-13T10:24:37.288Z,99.82
2017-11-13T10:25:37.282Z,98.49
2017-11-13T10:26:37.266Z,98.97
2017-11-13T10:27:37.258Z,98.78
2017-11-13T10:28:37.349Z,98.4
2017-11-13T10:29:37.241Z,98.78
2017-11-13T10:30:37.235Z,97.83
2017-11-13T10:31:36.996Z,97.97
2017-11-13T10:32:36.885Z,98.54
2017-11-13T10:33:37.199Z,98.73
2017-11-13T10:34:37.189Z,98.64
2017-11-13T10:35:37.280Z,98.73
2017-11-13T10:36:36.848Z,98.54
2017-11-13T10:37:37.162Z,96.93
2017-11-13T10:38:37.151Z,96.45
2017-11-13T10:39:37.142Z,96.55
2017-11-13T10:40:37.130Z,97.22
2017-11-13T10:41:37.120Z,97.69
2017-11-13T10:42:37.123Z,98.16
2017-11-13T10:43:37.111Z,98.45
2017-11-13T10:44:37.191Z,99.11
2017-11-13T10:45:37.083Z,99.3
2017-11-13T10:46:37.077Z,99.02
2017-11-13T10:47:37.064Z,99.3
2017-11-13T10:48:37.158Z,98.73
2017-11-13T10:49:37.049Z,99.83
2017-11-13T10:50:37.035Z,99.99
2017-11-13T10:51:37.023Z,99.99
2017-11-13T10:52:37.022Z,99.99
2017-11-13T10:53:36.676Z,99.64
2017-11-13T10:54:36.998Z,99.83
2017-11-13T10:55:36.986Z,99.99
2017-11-13T10:56:36.975Z,99.99
2017-11-13T10:57:37.065Z,99.99
2017-11-13T10:58:36.955Z,99.64
2017-11-13T10:59:36.947Z,99.83
2017-11-13T11:00:36.944Z,99.99
2017-11-13T11:01:36.601Z,99.99
2017-11-13T11:02:36.918Z,99.99
2017-11-13T11:03:37.004Z,99.92
2017-11-13T11:04:36.572Z,99.92
2017-11-13T11:05:36.891Z,98.59
2017-11-13T11:06:36.877Z,97.78
2017-11-13T11:07:36.870Z,97.02
2017-11-13T11:08:36.965Z,95.79
2017-11-13T11:09:36.847Z,95.12
2017-11-13T11:10:36.845Z,94.08
2017-11-13T11:11:36.827Z,93.04
2017-11-13T11:12:36.919Z,92.09
2017-11-13T11:13:36.818Z,92.09
2017-11-13T11:14:36.799Z,92.66
2017-11-13T11:15:36.791Z,93.23
2017-11-13T11:16:36.780Z,92.75
2017-11-13T11:17:36.770Z,92.75
2017-11-13T11:18:36.758Z,92.75
2017-11-13T11:19:36.752Z,93.41
2017-11-13T11:20:36.742Z,93.23
2017-11-13T11:21:36.406Z,93.32
2017-11-13T11:22:36.769Z,93.7
2017-11-13T11:23:36.384Z,94.37
2017-11-13T11:24:36.902Z,94.37
2017-11-13T11:25:36.365Z,94.08
2017-11-13T11:26:36.685Z,93.41
2017-11-13T11:27:36.680Z,93.13
2017-11-13T11:28:36.662Z,92.94
2017-11-13T11:29:36.328Z,92.94
2017-11-13T11:30:36.643Z,93.04
2017-11-13T11:31:36.306Z,93.04
2017-11-13T11:32:36.623Z,93.04
2017-11-13T11:33:36.612Z,91.24
2017-11-13T11:34:36.278Z,91.8
2017-11-13T11:35:36.694Z,92.37
2017-11-13T11:36:36.258Z,91.61
2017-11-13T11:37:36.573Z,91.14
2017-11-13T11:38:36.563Z,89.53
2017-11-13T11:39:36.554Z,89.05
2017-11-13T11:40:36.639Z,88.01
2017-11-13T11:41:36.536Z,88.01
2017-11-13T11:42:36.201Z,87.72
2017-11-13T11:43:36.514Z,87.24
2017-11-13T11:44:36.508Z,86.3
2017-11-13T11:45:36.594Z,87.24
2017-11-13T11:46:36.484Z,86.87
2017-11-13T11:47:36.150Z,88.39
2017-11-13T11:48:36.467Z,87.91
2017-11-13T11:49:36.453Z,88.29
2017-11-13T11:50:36.449Z,89.05
2017-11-13T11:51:36.438Z,89.72
2017-11-13T11:52:36.101Z,90.38
2017-11-13T11:53:36.413Z,91.8
2017-11-13T11:54:36.403Z,93.13
2017-11-13T11:55:36.496Z,91.99
2017-11-13T11:56:36.385Z,93.04
2017-11-13T11:57:36.405Z,93.04
2017-11-13T11:58:36.365Z,93.04
2017-11-13T11:59:36.357Z,94.18
2017-11-13T12:00:36.022Z,94.79
2017-11-13T12:01:36.012Z,95.94
2017-11-13T12:02:36.003Z,96.98
2017-11-13T12:03:36.316Z,97.45
2017-11-13T12:04:36.308Z,97.92
2017-11-13T12:05:35.976Z,97.74
2017-11-13T12:06:35.962Z,98.21
2017-11-13T12:07:36.278Z,98.4
2017-11-13T12:08:36.271Z,98.21
2017-11-13T12:09:36.254Z,98.69
2017-11-13T12:10:36.246Z,99.54
2017-11-13T12:11:36.237Z,98.88
2017-11-13T12:12:36.237Z,97.92
2017-11-13T12:13:35.896Z,97.17
2017-11-13T12:14:36.210Z,96.88
2017-11-13T12:15:36.204Z,96.12
2017-11-13T12:16:36.190Z,96.5
2017-11-13T12:17:36.179Z,96.6
2017-11-13T12:18:35.846Z,97.07
2017-11-13T12:19:36.162Z,95.46
2017-11-13T12:20:36.151Z,94.32
2017-11-13T12:21:36.141Z,92.32
2017-11-13T12:22:36.135Z,89.76
2017-11-13T12:23:36.125Z,89.67
2017-11-13T12:24:36.113Z,88.71
2017-11-13T12:25:36.102Z,88.95
2017-11-13T12:26:36.100Z,89.9
2017-11-13T12:27:36.081Z,89.33
2017-11-13T12:28:35.749Z,88.67
2017-11-13T12:29:36.062Z,88.39
2017-11-13T12:30:36.060Z,88.48
2017-11-13T12:31:36.146Z,88.71
2017-11-13T12:32:36.036Z,90.05
2017-11-13T12:33:36.025Z,90.23
2017-11-13T12:34:35.692Z,90.8
2017-11-13T12:35:36.004Z,93.08
2017-11-13T12:36:36.120Z,92.71
2017-11-13T12:37:35.991Z,93.27
2017-11-13T12:38:35.977Z,93.94
2017-11-13T12:39:35.976Z,93.94
2017-11-13T12:40:35.958Z,94.6
2017-11-13T12:41:35.947Z,95.27
2017-11-13T12:42:35.939Z,95.51
2017-11-13T12:43:35.936Z,94.74
2017-11-13T12:44:35.917Z,94.56
2017-11-13T12:45:35.912Z,93.23
2017-11-13T12:46:35.899Z,91.8
2017-11-13T12:47:35.567Z,92.85
2017-11-13T12:48:35.985Z,94.23
2017-11-13T12:49:35.870Z,94.74
2017-11-13T12:50:35.876Z,93.84
2017-11-13T12:51:35.849Z,92.75
2017-11-13T12:52:35.518Z,93.08
2017-11-13T12:53:35.507Z,91.47